Date,TemperatureHighF,TemperatureAvgF,TemperatureLowF,DewpointHighF,DewpointAvgF,DewpointLowF,HumidityHigh,HumidityAvg,HumidityLow,PressureMaxIn,PressureMinIn,WindSpeedMaxMPH,WindSpeedAvgMPH,GustSpeedMaxMPH,PrecipitationSumIn
2013-3-1,53,45,40,45,42,40,100,90,68,0.00,40.00,9,4,20,0.00
2013-3-2,56,45,36,44,40,35,100,83,57,0.00,40.00,15,4,22,0.00
2013-3-3,49,43,36,40,27,20,76,55,35,0.00,40.00,13,5,20,0.00
2013-3-4,53,37,27,29,26,21,92,65,39,0.00,40.00,5,2,12,0.00
2013-3-5,44,34,25,32,27,23,92,75,44,0.00,40.00,3,2,9,0.00
2013-3-6,49,40,35,40,35,32,96,83,58,0.00,40.00,9,3,13,0.00
2013-3-7,45,39,33,41,37,33,100,92,79,0.00,40.00,9,4,12,0.00
2013-3-8,45,35,31,38,34,31,100,95,76,0.00,40.00,2,2,5,0.00
2013-3-9,53,39,31,38,33,30,100,84,49,0.00,40.00,5,2,7,0.00
2013-3-10,47,40,34,36,34,33,96,81,62,0.00,40.00,6,3,12,0.00
2013-3-11,52,36,29,37,32,29,100,87,44,0.00,40.00,3,2,6,0.00
2013-3-12,55,45,38,44,39,33,96,81,59,0.00,40.00,9,3,15,0.00
2013-3-14,56,50,43,45,43,42,100,78,66,0.00,40.00,6,3,8,0.00
2013-3-15,56,48,40,40,37,36,85,69,48,0.00,40.00,7,4,17,0.00
2013-3-16,55,46,39,40,38,36,92,75,50,0.00,40.00,13,6,22,0.00
2013-3-17,51,40,34,30,27,23,78,60,33,0.00,40.00,9,4,20,0.00
2013-3-18,49,38,31,32,27,22,84,65,47,0.00,40.00,7,4,20,0.00
2013-3-19,53,41,24,33,29,24,100,64,42,0.00,40.00,3,2,7,0.00
2013-3-20,51,46,38,46,37,28,96,73,51,0.00,40.00,10,6,23,0.00
2013-3-21,40,40,40,29,29,29,64,64,64,0.00,40.00,9,9,21,0.00
2013-3-22,48,48,48,26,26,26,41,41,41,0.00,40.00,5,5,6,0.00
2013-3-28,58,55,49,44,42,41,76,63,53,0.00,40.00,6,3,9,0.00
2013-3-29,62,53,41,43,38,34,82,59,39,0.00,40.00,6,3,12,0.00
2013-3-30,62,46,32,43,34,-100,100,76,44,0.00,40.00,3,2,7,0.00
2013-3-31,64,45,32,43,38,32,100,78,39,0.00,40.00,5,2,7,0.00